createdAt,value
2018-12-07T00:01:01.109Z,8.77
2018-12-07T00:03:28.569Z,5.43
2018-12-07T00:05:55.971Z,6.37
2018-12-07T00:08:23.401Z,5.63
2018-12-07T00:10:50.813Z,5.77
2018-12-07T00:13:18.252Z,5.30
2018-12-07T00:15:45.825Z,7.13
2018-12-07T00:18:13.221Z,4.90
2018-12-07T00:20:40.638Z,10.37
2018-12-07T00:23:08.114Z,4.77
2018-12-07T00:25:35.660Z,5.23
2018-12-07T00:28:03.240Z,4.57
2018-12-07T00:30:30.734Z,5.93
2018-12-07T00:32:58.231Z,6.13
2018-12-07T00:35:25.689Z,5.97
2018-12-07T00:37:53.090Z,5.87
2018-12-07T00:40:20.733Z,7.13
2018-12-07T00:42:48.156Z,4.17
2018-12-07T00:45:15.641Z,4.10
2018-12-07T00:47:43.156Z,2.97
2018-12-07T00:50:10.665Z,3.50
2018-12-07T00:52:38.082Z,3.80
2018-12-07T00:55:07.403Z,6.53
2018-12-07T00:57:34.905Z,3.40
2018-12-07T01:00:02.463Z,3.03
2018-12-07T01:02:29.941Z,3.73
2018-12-07T01:04:57.338Z,5.83
2018-12-07T01:07:24.807Z,2.73
2018-12-07T01:09:52.221Z,2.97
2018-12-07T01:12:19.645Z,2.87
2018-12-07T01:14:47.160Z,2.70
2018-12-07T01:17:14.628Z,4.27
2018-12-07T01:19:42.161Z,2.87
2018-12-07T01:22:09.628Z,3.53
2018-12-07T01:24:37.161Z,2.57
2018-12-07T01:27:04.626Z,2.27
2018-12-07T01:29:32.089Z,5.07
2018-12-07T01:32:00.456Z,7.13
2018-12-07T01:34:27.865Z,5.30
2018-12-07T01:36:55.360Z,2.90
2018-12-07T01:39:22.869Z,1.83
2018-12-07T01:41:50.266Z,4.37
2018-12-07T01:44:17.746Z,2.73
2018-12-07T01:46:45.146Z,1.63
2018-12-07T01:49:12.555Z,2.40
2018-12-07T01:51:40.678Z,2.23
2018-12-07T01:54:08.165Z,2.53
2018-12-07T01:56:35.667Z,2.70
2018-12-07T01:59:03.512Z,2.57
2018-12-07T02:01:30.941Z,1.70
2018-12-07T02:03:58.344Z,2.00
2018-12-07T02:06:25.857Z,1.53
2018-12-07T02:08:53.325Z,2.90
2018-12-07T02:11:20.805Z,1.97
2018-12-07T02:13:48.208Z,2.23
2018-12-07T02:16:16.025Z,1.73
2018-12-07T02:18:43.433Z,1.70
2018-12-07T02:21:10.825Z,1.30
2018-12-07T02:23:38.305Z,3.00
2018-12-07T02:26:05.837Z,3.10
2018-12-07T02:28:33.337Z,1.80
2018-12-07T02:31:00.745Z,2.97
2018-12-07T02:33:28.249Z,1.53
2018-12-07T02:35:55.716Z,2.10
2018-12-07T02:38:23.209Z,2.07
2018-12-07T02:40:50.726Z,2.57
2018-12-07T02:43:18.197Z,2.37
2018-12-07T02:45:45.601Z,1.67
2018-12-07T02:48:13.178Z,1.87
2018-12-07T02:50:40.585Z,1.80
2018-12-07T02:53:07.988Z,1.80
2018-12-07T02:55:35.493Z,2.00
2018-12-07T02:58:02.969Z,2.53
2018-12-07T03:00:30.486Z,2.20
2018-12-07T03:02:57.982Z,2.93
2018-12-07T03:05:25.450Z,1.50
2018-12-07T03:07:52.921Z,1.40
2018-12-07T03:10:20.339Z,3.27
2018-12-07T03:12:47.761Z,1.40
2018-12-07T03:15:15.219Z,2.27
2018-12-07T03:17:42.729Z,3.67
2018-12-07T03:20:11.045Z,3.17
2018-12-07T03:22:38.623Z,2.47
2018-12-07T03:25:06.130Z,1.93
2018-12-07T03:27:33.629Z,3.07
2018-12-07T03:30:02.559Z,2.77
2018-12-07T03:32:30.037Z,2.70
2018-12-07T03:34:57.489Z,1.70
2018-12-07T03:37:24.913Z,1.67
2018-12-07T03:39:52.313Z,1.43
2018-12-07T03:42:19.726Z,1.53
2018-12-07T03:44:47.160Z,2.27
2018-12-07T03:47:14.566Z,2.67
2018-12-07T03:49:42.083Z,2.07
2018-12-07T03:52:09.554Z,1.47
2018-12-07T03:54:37.698Z,1.03
2018-12-07T03:57:05.161Z,1.27
2018-12-07T03:59:32.617Z,1.10
2018-12-07T04:02:00.057Z,1.27
2018-12-07T04:04:27.457Z,2.80
2018-12-07T04:06:54.955Z,1.33
2018-12-07T04:09:22.449Z,3.73
2018-12-07T04:11:49.874Z,1.53
2018-12-07T04:14:17.346Z,1.57
2018-12-07T04:16:44.874Z,1.83
2018-12-07T04:19:12.343Z,1.50
2018-12-07T04:21:39.944Z,2.80
2018-12-07T04:24:07.431Z,3.50
2018-12-07T04:26:34.893Z,1.27
2018-12-07T04:29:02.335Z,1.00
2018-12-07T04:31:30.648Z,1.77
2018-12-07T04:33:58.050Z,1.70
2018-12-07T04:36:25.528Z,1.03
2018-12-07T04:38:52.934Z,0.80
2018-12-07T04:41:20.377Z,2.40
2018-12-07T04:43:47.773Z,2.03
2018-12-07T04:46:15.233Z,1.80
2018-12-07T04:48:42.719Z,3.17
2018-12-07T04:51:11.479Z,1.57
2018-12-07T04:53:38.945Z,1.20
2018-12-07T04:56:06.508Z,1.17
2018-12-07T04:58:34.046Z,2.40
2018-12-07T05:01:01.517Z,1.60
2018-12-07T05:03:28.990Z,2.20
2018-12-07T05:05:56.565Z,3.83
2018-12-07T05:08:24.043Z,2.23
2018-12-07T05:10:51.554Z,3.43
2018-12-07T05:13:18.994Z,3.27
2018-12-07T05:15:46.465Z,4.03
2018-12-07T05:18:13.928Z,5.00
2018-12-07T05:20:41.419Z,3.03
2018-12-07T05:23:08.827Z,3.50
2018-12-07T05:25:36.301Z,4.80
2018-12-07T05:28:03.783Z,5.27
2018-12-07T05:30:31.240Z,4.37
2018-12-07T05:32:58.641Z,5.47
2018-12-07T05:35:26.128Z,6.30
2018-12-07T05:37:53.662Z,4.93
2018-12-07T05:40:21.062Z,4.63
2018-12-07T05:42:48.482Z,5.67
2018-12-07T05:45:15.953Z,5.50
2018-12-07T05:47:43.617Z,5.33
2018-12-07T05:50:11.160Z,5.17
2018-12-07T05:52:38.567Z,4.50
2018-12-07T05:55:06.003Z,4.63
2018-12-07T05:57:33.417Z,4.97
2018-12-07T06:00:00.822Z,4.37
2018-12-07T06:02:28.339Z,5.90
2018-12-07T06:04:55.812Z,5.13
2018-12-07T06:07:23.207Z,4.63
2018-12-07T06:09:50.682Z,6.87
2018-12-07T06:12:18.097Z,5.67
2018-12-07T06:14:45.578Z,4.03
2018-12-07T06:17:12.985Z,4.17
2018-12-07T06:19:40.509Z,6.00
2018-12-07T06:22:07.990Z,4.67
2018-12-07T06:24:35.407Z,6.20
2018-12-07T06:27:02.861Z,5.13
2018-12-07T06:29:31.244Z,5.23
2018-12-07T06:31:58.740Z,4.80
2018-12-07T06:34:26.151Z,4.30
2018-12-07T06:36:53.673Z,7.27
2018-12-07T06:39:21.076Z,5.93
2018-12-07T06:41:48.486Z,5.83
2018-12-07T06:44:15.949Z,6.63
2018-12-07T06:46:43.353Z,9.17
2018-12-07T06:49:10.866Z,8.30
2018-12-07T06:51:40.913Z,6.03
2018-12-07T06:54:08.433Z,7.13
2018-12-07T06:56:35.856Z,6.30
2018-12-07T06:59:03.357Z,6.93
2018-12-07T07:01:30.936Z,14.20
2018-12-07T07:03:58.676Z,4.80
2018-12-07T07:06:26.090Z,10.77
2018-12-07T07:08:53.497Z,9.17
2018-12-07T07:11:20.906Z,8.47
2018-12-07T07:13:48.314Z,10.37
2018-12-07T07:16:22.912Z,10.07
2018-12-07T07:18:45.201Z,10.37
2018-12-07T07:21:12.669Z,7.07
2018-12-07T07:23:40.145Z,7.27
2018-12-07T07:26:07.985Z,7.67
2018-12-07T07:28:35.418Z,8.90
2018-12-07T07:31:02.838Z,7.70
2018-12-07T07:33:30.239Z,8.93
2018-12-07T07:35:57.705Z,9.60
2018-12-07T07:38:25.129Z,10.80
2018-12-07T07:40:52.597Z,7.27
2018-12-07T07:43:20.000Z,4.13
2018-12-07T07:45:47.513Z,5.83
2018-12-07T07:48:14.987Z,6.73
2018-12-07T07:50:42.469Z,7.03
2018-12-07T07:53:09.898Z,5.00
2018-12-07T07:55:37.311Z,4.27
2018-12-07T07:58:04.758Z,8.27
2018-12-07T08:00:32.171Z,7.13
2018-12-07T08:02:59.988Z,7.20
2018-12-07T08:05:27.574Z,10.90
2018-12-07T08:07:55.672Z,5.67
2018-12-07T08:10:23.195Z,6.13
2018-12-07T08:12:50.595Z,3.83
2018-12-07T08:15:18.028Z,4.77
2018-12-07T08:17:45.575Z,4.73
2018-12-07T08:20:13.090Z,7.07
2018-12-07T08:22:40.601Z,4.20
2018-12-07T08:25:08.141Z,4.53
2018-12-07T08:27:35.586Z,3.93
2018-12-07T08:30:04.340Z,6.17
2018-12-07T08:32:32.176Z,6.83
2018-12-07T08:34:59.637Z,5.33
2018-12-07T08:37:27.073Z,6.60
2018-12-07T08:39:54.537Z,7.50
2018-12-07T08:42:22.013Z,3.47
2018-12-07T08:44:49.537Z,6.30
2018-12-07T08:47:16.941Z,2.70
2018-12-07T08:49:50.178Z,2.37
2018-12-07T08:52:17.657Z,4.73
2018-12-07T08:54:45.133Z,6.37
2018-12-07T08:57:12.558Z,7.20
2018-12-07T08:59:39.958Z,2.83
2018-12-07T09:02:07.384Z,5.17
2018-12-07T09:04:35.558Z,4.27
2018-12-07T09:07:03.066Z,4.80
2018-12-07T09:09:30.538Z,6.63
2018-12-07T09:11:57.961Z,3.80
2018-12-07T09:14:25.378Z,6.13
2018-12-07T09:16:52.794Z,6.30
2018-12-07T09:19:20.383Z,4.47
2018-12-07T09:21:47.793Z,12.17
2018-12-07T09:24:15.223Z,12.20
2018-12-07T09:26:42.966Z,4.30
2018-12-07T09:29:10.408Z,5.67
2018-12-07T09:31:37.887Z,6.63
2018-12-07T09:34:05.370Z,7.27
2018-12-07T09:36:33.623Z,6.30
2018-12-07T09:39:01.180Z,4.20
2018-12-07T09:41:28.745Z,4.03
2018-12-07T09:43:56.157Z,3.67
2018-12-07T09:46:23.574Z,4.83
2018-12-07T09:48:50.982Z,2.80
2018-12-07T09:51:18.456Z,8.70
2018-12-07T09:53:45.877Z,7.17
2018-12-07T09:56:13.346Z,9.10
2018-12-07T09:58:40.759Z,6.73
2018-12-07T10:01:08.545Z,7.00
2018-12-07T10:03:35.965Z,6.37
2018-12-07T10:06:03.421Z,5.97
2018-12-07T10:08:30.825Z,3.57
2018-12-07T10:10:58.269Z,9.10
2018-12-07T10:13:25.751Z,8.50
2018-12-07T10:15:53.149Z,3.67
2018-12-07T10:18:20.584Z,4.77
2018-12-07T10:20:47.982Z,6.93
2018-12-07T10:23:15.381Z,4.53
2018-12-07T10:25:42.824Z,10.17
2018-12-07T10:28:10.249Z,6.80
2018-12-07T10:30:37.673Z,4.17
2018-12-07T10:33:05.129Z,6.57
2018-12-07T10:35:32.653Z,9.07
2018-12-07T10:38:00.130Z,4.40
2018-12-07T10:40:27.620Z,8.27
2018-12-07T10:42:55.063Z,7.13
2018-12-07T10:45:22.521Z,6.33
2018-12-07T10:47:50.390Z,7.60
2018-12-07T10:50:18.163Z,4.90
2018-12-07T10:52:45.597Z,9.03
2018-12-07T10:55:13.084Z,4.80
2018-12-07T10:57:40.495Z,7.17
2018-12-07T11:00:11.248Z,12.77
2018-12-07T11:02:44.465Z,9.40
2018-12-07T11:05:17.609Z,7.30
2018-12-07T11:07:52.034Z,9.67
2018-12-07T11:10:25.444Z,5.40
2018-12-07T11:12:58.522Z,6.77
2018-12-07T11:15:31.582Z,9.90
2018-12-07T11:18:11.615Z,5.30
2018-12-07T11:20:44.795Z,4.10
2018-12-07T11:26:05.668Z,7.97
2018-12-07T11:28:38.934Z,9.50
2018-12-07T11:31:12.201Z,7.13
2018-12-07T11:33:41.523Z,9.67
2018-12-07T11:36:08.970Z,7.10
2018-12-07T11:38:36.381Z,13.20
2018-12-07T11:41:03.841Z,10.97
2018-12-07T11:43:31.356Z,8.00
2018-12-07T11:45:58.830Z,3.73
2018-12-07T11:48:26.318Z,5.63
2018-12-07T11:50:53.727Z,8.77
2018-12-07T11:53:21.205Z,4.70
2018-12-07T11:55:48.809Z,9.67
2018-12-07T11:58:16.241Z,7.53
2018-12-07T12:00:43.693Z,9.00
2018-12-07T12:03:11.175Z,4.27
2018-12-07T12:05:38.623Z,5.60
2018-12-07T12:08:06.130Z,7.03
2018-12-07T12:10:34.280Z,8.43
2018-12-07T12:13:01.773Z,7.47
2018-12-07T12:15:29.182Z,7.33
2018-12-07T12:17:56.593Z,9.07
2018-12-07T12:20:24.102Z,4.00
2018-12-07T12:22:51.517Z,8.20
2018-12-07T12:25:18.925Z,4.77
2018-12-07T12:27:46.425Z,7.90
2018-12-07T12:30:13.842Z,4.97
2018-12-07T12:32:41.333Z,4.00
2018-12-07T12:35:08.803Z,4.63
2018-12-07T12:37:36.273Z,3.97
2018-12-07T12:40:03.811Z,4.37
2018-12-07T12:42:31.389Z,3.93
2018-12-07T12:44:58.808Z,4.60
2018-12-07T12:47:26.293Z,3.10
2018-12-07T12:49:53.785Z,6.57
2018-12-07T12:52:21.191Z,7.93
2018-12-07T12:54:48.674Z,4.10
2018-12-07T12:57:16.122Z,4.90
2018-12-07T12:59:43.610Z,7.23
2018-12-07T13:02:11.038Z,3.80
2018-12-07T13:04:38.441Z,5.73
2018-12-07T13:07:05.865Z,3.73
2018-12-07T13:09:33.379Z,5.37
2018-12-07T13:12:00.777Z,3.80
2018-12-07T13:14:28.206Z,7.53
2018-12-07T13:16:55.758Z,7.57
2018-12-07T13:19:23.182Z,5.43
2018-12-07T13:21:50.672Z,1.97
2018-12-07T13:24:18.064Z,3.13
2018-12-07T13:26:45.609Z,3.20
2018-12-07T13:29:13.233Z,3.30
2018-12-07T13:31:40.646Z,7.47
2018-12-07T13:34:08.053Z,4.00
2018-12-07T13:36:35.487Z,2.37
2018-12-07T13:39:05.358Z,3.43
2018-12-07T13:41:33.042Z,3.70
2018-12-07T13:44:01.117Z,2.67
2018-12-07T13:46:28.927Z,2.37
2018-12-07T13:48:56.729Z,3.30
2018-12-07T13:51:24.946Z,1.73
2018-12-07T13:53:52.554Z,1.90
2018-12-07T13:56:20.189Z,3.13
2018-12-07T13:58:47.746Z,6.17
2018-12-07T14:01:15.231Z,3.50
2018-12-07T14:03:42.715Z,4.50
2018-12-07T14:06:10.229Z,2.43
2018-12-07T14:08:37.819Z,4.37
2018-12-07T14:11:05.323Z,5.17
2018-12-07T14:13:32.951Z,4.60
2018-12-07T14:16:00.604Z,2.70
2018-12-07T14:18:28.046Z,2.23
2018-12-07T14:20:55.667Z,3.17
2018-12-07T14:23:23.229Z,1.57
2018-12-07T14:25:50.625Z,1.60
2018-12-07T14:28:18.220Z,3.40
2018-12-07T14:30:45.705Z,2.10
2018-12-07T14:33:13.395Z,3.80
2018-12-07T14:35:40.902Z,2.47
2018-12-07T14:38:08.424Z,3.17
2018-12-07T14:40:35.889Z,1.87
2018-12-07T14:43:03.611Z,2.33
2018-12-07T14:45:31.889Z,1.60
2018-12-07T14:47:59.484Z,2.77
2018-12-07T14:50:27.154Z,1.00
2018-12-07T14:52:54.807Z,0.60
2018-12-07T14:55:22.393Z,1.47
2018-12-07T14:57:50.134Z,1.20
2018-12-07T15:00:17.533Z,2.80
2018-12-07T15:02:45.242Z,0.97
2018-12-07T15:05:12.891Z,2.43
2018-12-07T15:07:40.501Z,3.77
2018-12-07T15:10:08.062Z,1.13
2018-12-07T15:12:35.565Z,0.67
2018-12-07T15:15:03.983Z,1.37
2018-12-07T15:17:31.557Z,7.70
2018-12-07T15:19:59.177Z,0.57
2018-12-07T15:22:26.719Z,0.83
2018-12-07T15:24:54.288Z,3.70
2018-12-07T15:27:21.856Z,1.13
2018-12-07T15:29:49.297Z,1.80
2018-12-07T15:32:16.995Z,0.33
2018-12-07T15:34:44.773Z,0.90
2018-12-07T15:37:12.397Z,0.73
2018-12-07T15:39:39.981Z,1.87
2018-12-07T15:42:07.926Z,1.87
2018-12-07T15:44:35.745Z,0.77
2018-12-07T15:47:03.181Z,1.67
2018-12-07T15:49:30.727Z,0.60
2018-12-07T15:52:00.861Z,2.50
2018-12-07T15:54:28.671Z,0.73
2018-12-07T15:56:56.316Z,0.70
2018-12-07T15:59:24.293Z,1.67
2018-12-07T16:01:51.902Z,1.43
2018-12-07T16:04:19.694Z,1.20
2018-12-07T16:06:47.296Z,0.80
2018-12-07T16:09:14.884Z,1.50
2018-12-07T16:11:42.485Z,0.57
2018-12-07T16:14:10.260Z,1.40
2018-12-07T16:16:38.414Z,1.10
2018-12-07T16:19:05.854Z,1.60
2018-12-07T16:21:33.369Z,1.27
2018-12-07T16:24:00.972Z,1.10
2018-12-07T16:26:28.500Z,0.50
2018-12-07T16:28:56.133Z,2.53
2018-12-07T16:31:23.663Z,1.83
2018-12-07T16:33:51.359Z,1.73
2018-12-07T16:36:19.110Z,5.87
2018-12-07T16:38:46.835Z,0.73
2018-12-07T16:41:14.388Z,1.70
2018-12-07T16:43:41.795Z,1.73
2018-12-07T16:46:10.376Z,1.57
2018-12-07T16:48:38.051Z,0.40
2018-12-07T16:51:05.803Z,4.17
2018-12-07T16:53:33.448Z,2.37
2018-12-07T16:56:01.165Z,2.87
2018-12-07T16:58:28.811Z,3.33
2018-12-07T17:00:56.504Z,3.03
2018-12-07T17:03:24.053Z,2.00
2018-12-07T17:05:51.594Z,3.40
2018-12-07T17:08:19.126Z,4.47
2018-12-07T17:10:46.658Z,1.27
2018-12-07T17:13:14.391Z,2.20
2018-12-07T17:15:41.937Z,1.43
2018-12-07T17:18:09.485Z,1.40
2018-12-07T17:20:37.701Z,0.83
2018-12-07T17:23:05.329Z,0.73
2018-12-07T17:25:32.784Z,1.90
2018-12-07T17:28:00.452Z,2.80
2018-12-07T17:30:28.081Z,2.37
2018-12-07T17:32:55.599Z,4.53
2018-12-07T17:35:23.030Z,1.97
2018-12-07T17:37:50.471Z,0.83
2018-12-07T17:40:17.943Z,2.20
2018-12-07T17:42:45.393Z,3.03
2018-12-07T17:45:12.955Z,3.60
2018-12-07T17:47:40.391Z,2.60
2018-12-07T17:50:07.898Z,2.40
2018-12-07T17:52:35.441Z,2.80
2018-12-07T17:55:02.890Z,3.07
2018-12-07T17:57:30.464Z,2.90
2018-12-07T17:59:58.043Z,1.77
2018-12-07T18:02:25.425Z,3.17
2018-12-07T18:04:53.278Z,2.60
2018-12-07T18:07:20.850Z,4.13
2018-12-07T18:09:48.258Z,1.93
2018-12-07T18:12:15.842Z,1.63
2018-12-07T18:14:43.738Z,1.47
2018-12-07T18:17:11.384Z,2.23
2018-12-07T18:19:38.874Z,2.00
2018-12-07T18:22:06.522Z,1.50
2018-12-07T18:24:34.137Z,3.60
2018-12-07T18:27:01.804Z,2.23
2018-12-07T18:29:29.498Z,1.00
2018-12-07T18:31:56.903Z,1.80
2018-12-07T18:34:24.422Z,3.60
2018-12-07T18:36:52.088Z,1.13
2018-12-07T18:42:06.379Z,2.17
2018-12-07T18:44:34.080Z,2.30
2018-12-07T18:47:01.655Z,2.23
2018-12-07T18:49:29.205Z,1.17
2018-12-07T18:51:58.717Z,0.90
2018-12-07T18:54:26.097Z,2.87
2018-12-07T18:56:53.599Z,2.20
2018-12-07T18:59:21.215Z,6.43
2018-12-07T19:01:48.890Z,1.50
2018-12-07T19:04:16.341Z,2.83
2018-12-07T19:06:44.045Z,2.97
2018-12-07T19:09:11.602Z,2.10
2018-12-07T19:11:39.237Z,2.20
2018-12-07T19:14:06.700Z,2.83
2018-12-07T19:16:34.199Z,1.33
2018-12-07T19:19:01.875Z,1.57
2018-12-07T19:21:29.506Z,2.70
2018-12-07T19:23:57.112Z,1.73
2018-12-07T19:26:24.815Z,2.10
2018-12-07T19:28:52.269Z,2.20
2018-12-07T19:31:20.041Z,2.70
2018-12-07T19:33:47.717Z,1.87
2018-12-07T19:36:15.415Z,1.17
2018-12-07T19:38:43.603Z,1.80
2018-12-07T19:41:11.079Z,1.73
2018-12-07T19:43:38.651Z,1.60
2018-12-07T19:46:06.536Z,2.73
2018-12-07T19:48:34.482Z,1.53
2018-12-07T19:51:03.912Z,1.70
2018-12-07T19:53:32.338Z,1.10
2018-12-07T19:55:59.783Z,1.43
2018-12-07T19:58:27.414Z,2.03
2018-12-07T20:00:54.888Z,1.87
2018-12-07T20:03:22.689Z,1.43
2018-12-07T20:05:50.300Z,0.50
2018-12-07T20:08:17.945Z,0.90
2018-12-07T20:10:45.483Z,0.33
2018-12-07T20:13:12.961Z,0.73
2018-12-07T20:15:40.467Z,0.53
2018-12-07T20:18:08.139Z,1.43
2018-12-07T20:20:35.901Z,1.47
2018-12-07T20:23:03.685Z,5.80
2018-12-07T20:25:31.380Z,2.30
2018-12-07T20:27:58.977Z,1.37
2018-12-07T20:30:26.548Z,5.60
2018-12-07T20:32:54.080Z,0.53
2018-12-07T20:35:21.548Z,1.63
2018-12-07T20:37:49.152Z,4.73
2018-12-07T20:40:16.593Z,2.83
2018-12-07T20:42:44.072Z,2.93
2018-12-07T20:45:11.836Z,1.97
2018-12-07T20:47:39.722Z,1.70
2018-12-07T20:50:07.578Z,1.20
2018-12-07T20:52:35.112Z,0.87
2018-12-07T20:55:02.602Z,1.70
2018-12-07T20:57:30.787Z,1.47
2018-12-07T20:59:58.716Z,2.63
2018-12-07T21:02:26.270Z,0.90
2018-12-07T21:04:53.835Z,1.40
2018-12-07T21:07:31.902Z,3.60
2018-12-07T21:10:11.787Z,1.20
2018-12-07T21:12:57.178Z,3.33
2018-12-07T21:15:24.736Z,2.97
2018-12-07T21:17:52.218Z,1.03
2018-12-07T21:20:20.177Z,0.50
2018-12-07T21:22:47.784Z,1.43
2018-12-07T21:25:15.286Z,1.13
2018-12-07T21:27:43.202Z,1.40
2018-12-07T21:30:25.146Z,2.43
2018-12-07T21:32:52.778Z,1.60
2018-12-07T21:35:20.262Z,1.53
2018-12-07T21:37:47.865Z,2.17
2018-12-07T21:40:15.269Z,2.23
2018-12-07T21:42:42.711Z,1.13
2018-12-07T21:45:10.549Z,1.70
2018-12-07T21:47:58.094Z,2.33
2018-12-07T21:50:25.876Z,3.30
2018-12-07T21:52:53.394Z,3.10
2018-12-07T21:55:21.218Z,4.13
2018-12-07T21:57:49.202Z,2.47
2018-12-07T22:00:17.894Z,3.73
2018-12-07T22:02:45.385Z,4.20
2018-12-07T22:05:12.806Z,7.77
2018-12-07T22:07:40.531Z,3.77
2018-12-07T22:10:08.322Z,5.77
2018-12-07T22:12:35.986Z,1.83
2018-12-07T22:15:03.861Z,3.27
2018-12-07T22:17:31.454Z,2.70
2018-12-07T22:19:58.943Z,2.63
2018-12-07T22:22:26.758Z,3.53
2018-12-07T22:24:54.294Z,3.87
2018-12-07T22:27:22.114Z,5.33
2018-12-07T22:29:49.687Z,4.33
2018-12-07T22:32:17.366Z,4.33
2018-12-07T22:34:44.986Z,5.77
2018-12-07T22:37:12.753Z,4.57
2018-12-07T22:39:40.407Z,8.43
2018-12-07T22:42:08.214Z,4.83
2018-12-07T22:44:35.828Z,7.93
2018-12-07T22:47:03.545Z,6.47
2018-12-07T22:49:31.011Z,6.13
2018-12-07T22:51:59.071Z,4.90
2018-12-07T22:54:26.560Z,2.07
2018-12-07T22:56:53.986Z,6.43
2018-12-07T22:59:21.469Z,4.50
2018-12-07T23:01:48.913Z,3.43
2018-12-07T23:04:16.350Z,7.17
2018-12-07T23:06:43.830Z,7.33
2018-12-07T23:09:11.277Z,8.67
2018-12-07T23:11:38.794Z,5.67
2018-12-07T23:14:06.218Z,6.83
2018-12-07T23:16:33.643Z,5.70
2018-12-07T23:19:01.217Z,5.23
2018-12-07T23:21:28.773Z,5.90
2018-12-07T23:23:56.250Z,5.10
2018-12-07T23:26:23.700Z,3.70
2018-12-07T23:28:51.180Z,4.80
2018-12-07T23:31:18.669Z,7.47
2018-12-07T23:33:46.184Z,5.20
2018-12-07T23:36:13.661Z,5.60
2018-12-07T23:38:41.089Z,9.17
2018-12-07T23:41:08.542Z,7.93
2018-12-07T23:43:35.988Z,10.43
2018-12-07T23:46:03.428Z,4.10
2018-12-07T23:48:30.834Z,8.33
2018-12-07T23:50:58.263Z,5.33
2018-12-07T23:53:25.673Z,4.27
2018-12-07T23:55:53.205Z,5.43
2018-12-07T23:58:20.621Z,4.70
